Capitol Logistics 2853


CYHZ
Robert L. Stanfield International Airport
Halifax, CA
PANC
Ted Stevens Anchorage International Airport
Anchorage, US

Activity Log

Date Flight Route Aircraft Duration
No Flights Yet

Route Details

Aircraft Information
Primary: Boeing 747-400BCF
Backup: Boeing 777-200LRF
Route Data
Distance: 3022nm
Sched. Duration: 7h 04m
Avg. Duration: 0h 00m (-705m)
Times Flown: 0
Recm'd Route: FRENN PQI VBS MT CHARN 5900N/09000W DUVER VERKI ALSAB NCA19 YZF NCA17 YWY NCA17 ORT J124 GKN J167 JOH WITTI4
Planned Altitude: 34,000ft
Origin Wx: CYHZ 231300Z 27011KT 15SM SKC M01/M04 A3010 RMK SLP203
Dest. Wx: PANC 231253Z 36013KT 10SM OVC039 M11/M16 A2996 RMK AO2 SLP148 T11061161 $
Notes: OPERATED FOR SKYLEASE CARGO

Financial History
Total Freight: 0lbs
Average Load: 0lbs/flt
Fuel Used: 0lbs
Avg. Fuel Used: 0lbs/flt
Fuel Expense: $0
Avg. Fuel Expense: $0
Avg. Fuel Cost: $0/lbs
Total Gross Income: $0
Pilot Pay: $0
Total Expenses: $0
Total Revenue: $0
Average Revenue: $0